sensor_id;sensor_type;location;lat;lon;timestamp;temperature;humidity
2839;DHT22;1427;48.510;9.060;2022-08-05T00:01:10;24.10;94.50
2839;DHT22;1427;48.510;9.060;2022-08-05T00:03:54;24.10;94.60
2839;DHT22;1427;48.510;9.060;2022-08-05T00:06:24;24.10;94.80
2839;DHT22;1427;48.510;9.060;2022-08-05T00:08:58;24.00;95.10
2839;DHT22;1427;48.510;9.060;2022-08-05T00:11:27;24.00;95.30
2839;DHT22;1427;48.510;9.060;2022-08-05T00:14:01;23.80;95.50
2839;DHT22;1427;48.510;9.060;2022-08-05T00:16:42;23.90;95.80
2839;DHT22;1427;48.510;9.060;2022-08-05T00:19:20;23.80;96.00
2839;DHT22;1427;48.510;9.060;2022-08-05T00:22:00;23.60;95.90
2839;DHT22;1427;48.510;9.060;2022-08-05T00:24:29;23.60;96.20
2839;DHT22;1427;48.510;9.060;2022-08-05T00:26:59;23.60;96.10
2839;DHT22;1427;48.510;9.060;2022-08-05T00:29:35;23.50;96.40
2839;DHT22;1427;48.510;9.060;2022-08-05T00:32:04;23.40;96.70
2839;DHT22;1427;48.510;9.060;2022-08-05T00:34:41;23.30;96.90
2839;DHT22;1427;48.510;9.060;2022-08-05T00:37:31;23.20;97.20
2839;DHT22;1427;48.510;9.060;2022-08-05T00:40:19;23.20;97.40
2839;DHT22;1427;48.510;9.060;2022-08-05T00:42:53;23.20;97.50
2839;DHT22;1427;48.510;9.060;2022-08-05T00:45:21;23.10;97.70
2839;DHT22;1427;48.510;9.060;2022-08-05T00:48:05;23.00;97.70
2839;DHT22;1427;48.510;9.060;2022-08-05T00:50:33;22.90;97.90
2839;DHT22;1427;48.510;9.060;2022-08-05T00:53:03;22.90;97.90
2839;DHT22;1427;48.510;9.060;2022-08-05T00:55:35;22.90;97.50
2839;DHT22;1427;48.510;9.060;2022-08-05T00:58:09;22.80;97.40
2839;DHT22;1427;48.510;9.060;2022-08-05T01:00:39;22.80;96.90
2839;DHT22;1427;48.510;9.060;2022-08-05T01:03:08;22.80;96.60
2839;DHT22;1427;48.510;9.060;2022-08-05T01:05:49;22.80;96.80
2839;DHT22;1427;48.510;9.060;2022-08-05T01:08:21;22.80;96.50
2839;DHT22;1427;48.510;9.060;2022-08-05T01:11:11;23.00;96.10
2839;DHT22;1427;48.510;9.060;2022-08-05T01:13:56;23.00;96.10
2839;DHT22;1427;48.510;9.060;2022-08-05T01:16:31;23.00;96.00
2839;DHT22;1427;48.510;9.060;2022-08-05T01:19:09;23.00;96.20
2839;DHT22;1427;48.510;9.060;2022-08-05T01:25:02;22.90;96.70
2839;DHT22;1427;48.510;9.060;2022-08-05T01:28:03;22.80;96.80
2839;DHT22;1427;48.510;9.060;2022-08-05T01:30:37;22.90;96.80
2839;DHT22;1427;48.510;9.060;2022-08-05T01:33:23;22.90;96.70
2839;DHT22;1427;48.510;9.060;2022-08-05T01:36:07;22.90;96.80
2839;DHT22;1427;48.510;9.060;2022-08-05T01:38:43;22.80;96.60
2839;DHT22;1427;48.510;9.060;2022-08-05T01:41:17;22.90;96.50
2839;DHT22;1427;48.510;9.060;2022-08-05T01:43:50;22.90;96.50
2839;DHT22;1427;48.510;9.060;2022-08-05T01:46:20;22.80;96.60
2839;DHT22;1427;48.510;9.060;2022-08-05T01:49:12;22.90;96.40
2839;DHT22;1427;48.510;9.060;2022-08-05T01:51:53;22.90;96.30
2839;DHT22;1427;48.510;9.060;2022-08-05T01:54:27;22.70;96.40
2839;DHT22;1427;48.510;9.060;2022-08-05T01:56:56;22.70;96.60
2839;DHT22;1427;48.510;9.060;2022-08-05T01:59:48;22.60;96.60
2839;DHT22;1427;48.510;9.060;2022-08-05T02:02:20;22.70;96.70
2839;DHT22;1427;48.510;9.060;2022-08-05T02:04:56;22.80;96.90
2839;DHT22;1427;48.510;9.060;2022-08-05T02:07:25;22.80;96.80
2839;DHT22;1427;48.510;9.060;2022-08-05T02:09:56;22.80;96.80
2839;DHT22;1427;48.510;9.060;2022-08-05T02:12:32;23.00;96.80
2839;DHT22;1427;48.510;9.060;2022-08-05T02:15:06;23.00;96.80
2839;DHT22;1427;48.510;9.060;2022-08-05T02:17:41;23.00;96.80
2839;DHT22;1427;48.510;9.060;2022-08-05T02:20:43;22.80;96.90
2839;DHT22;1427;48.510;9.060;2022-08-05T02:23:13;22.60;97.00
2839;DHT22;1427;48.510;9.060;2022-08-05T02:25:45;22.40;97.10
2839;DHT22;1427;48.510;9.060;2022-08-05T02:28:21;22.30;97.40
2839;DHT22;1427;48.510;9.060;2022-08-05T02:31:00;22.30;97.40
2839;DHT22;1427;48.510;9.060;2022-08-05T02:33:32;22.20;97.60
2839;DHT22;1427;48.510;9.060;2022-08-05T02:36:06;22.20;97.70
2839;DHT22;1427;48.510;9.060;2022-08-05T02:38:40;22.20;97.70
2839;DHT22;1427;48.510;9.060;2022-08-05T02:41:19;22.10;97.70
2839;DHT22;1427;48.510;9.060;2022-08-05T02:43:49;22.10;97.70
2839;DHT22;1427;48.510;9.060;2022-08-05T02:46:40;22.20;97.80
2839;DHT22;1427;48.510;9.060;2022-08-05T02:49:25;22.10;97.60
2839;DHT22;1427;48.510;9.060;2022-08-05T02:52:05;22.20;97.80
2839;DHT22;1427;48.510;9.060;2022-08-05T02:54:35;22.20;98.00
2839;DHT22;1427;48.510;9.060;2022-08-05T02:57:10;22.30;97.70
2839;DHT22;1427;48.510;9.060;2022-08-05T02:59:59;22.20;97.80
2839;DHT22;1427;48.510;9.060;2022-08-05T03:02:32;22.10;97.60
2839;DHT22;1427;48.510;9.060;2022-08-05T03:05:01;22.10;97.60
2839;DHT22;1427;48.510;9.060;2022-08-05T03:07:30;22.00;97.80
2839;DHT22;1427;48.510;9.060;2022-08-05T03:10:18;22.10;97.70
2839;DHT22;1427;48.510;9.060;2022-08-05T03:12:51;21.90;98.00
2839;DHT22;1427;48.510;9.060;2022-08-05T03:15:20;22.00;98.00
2839;DHT22;1427;48.510;9.060;2022-08-05T03:17:52;21.90;98.10
2839;DHT22;1427;48.510;9.060;2022-08-05T03:20:23;21.90;98.20
2839;DHT22;1427;48.510;9.060;2022-08-05T03:22:53;21.90;98.10
2839;DHT22;1427;48.510;9.060;2022-08-05T03:25:24;21.80;98.00
2839;DHT22;1427;48.510;9.060;2022-08-05T03:28:12;21.80;98.10
2839;DHT22;1427;48.510;9.060;2022-08-05T03:30:46;21.60;97.90
2839;DHT22;1427;48.510;9.060;2022-08-05T03:33:16;21.60;97.90
2839;DHT22;1427;48.510;9.060;2022-08-05T03:35:45;21.60;97.30
2839;DHT22;1427;48.510;9.060;2022-08-05T03:38:15;21.60;97.10
2839;DHT22;1427;48.510;9.060;2022-08-05T03:40:59;21.50;97.20
2839;DHT22;1427;48.510;9.060;2022-08-05T03:43:36;21.50;97.30
2839;DHT22;1427;48.510;9.060;2022-08-05T03:46:24;21.50;97.20
2839;DHT22;1427;48.510;9.060;2022-08-05T03:48:57;21.50;97.10
2839;DHT22;1427;48.510;9.060;2022-08-05T03:51:30;21.40;96.80
2839;DHT22;1427;48.510;9.060;2022-08-05T03:54:27;21.30;96.90
2839;DHT22;1427;48.510;9.060;2022-08-05T03:57:19;21.30;96.90
2839;DHT22;1427;48.510;9.060;2022-08-05T04:00:09;21.30;96.90
2839;DHT22;1427;48.510;9.060;2022-08-05T04:02:44;21.30;96.60
2839;DHT22;1427;48.510;9.060;2022-08-05T04:05:30;21.30;96.80
2839;DHT22;1427;48.510;9.060;2022-08-05T04:08:01;21.40;96.80
2839;DHT22;1427;48.510;9.060;2022-08-05T04:10:41;21.30;97.00
2839;DHT22;1427;48.510;9.060;2022-08-05T04:13:10;21.40;97.20
2839;DHT22;1427;48.510;9.060;2022-08-05T04:15:38;21.30;97.30
2839;DHT22;1427;48.510;9.060;2022-08-05T04:18:27;21.40;97.10
2839;DHT22;1427;48.510;9.060;2022-08-05T04:20:56;21.50;97.30
2839;DHT22;1427;48.510;9.060;2022-08-05T04:23:26;21.70;97.20
2839;DHT22;1427;48.510;9.060;2022-08-05T04:26:15;21.60;97.30
2839;DHT22;1427;48.510;9.060;2022-08-05T04:28:44;21.60;97.40
2839;DHT22;1427;48.510;9.060;2022-08-05T04:31:17;21.70;97.50
2839;DHT22;1427;48.510;9.060;2022-08-05T04:33:46;21.70;97.40
2839;DHT22;1427;48.510;9.060;2022-08-05T04:36:35;21.80;97.40
2839;DHT22;1427;48.510;9.060;2022-08-05T04:39:16;21.70;97.60
2839;DHT22;1427;48.510;9.060;2022-08-05T04:41:44;21.70;97.80
2839;DHT22;1427;48.510;9.060;2022-08-05T04:44:14;21.70;97.90
2839;DHT22;1427;48.510;9.060;2022-08-05T04:46:55;21.70;97.90
2839;DHT22;1427;48.510;9.060;2022-08-05T04:49:24;21.80;97.90
2839;DHT22;1427;48.510;9.060;2022-08-05T04:52:13;21.90;97.70
2839;DHT22;1427;48.510;9.060;2022-08-05T04:54:41;21.90;97.40
2839;DHT22;1427;48.510;9.060;2022-08-05T04:57:09;21.90;97.50
2839;DHT22;1427;48.510;9.060;2022-08-05T04:59:37;21.90;97.90
2839;DHT22;1427;48.510;9.060;2022-08-05T05:02:07;21.90;97.60
2839;DHT22;1427;48.510;9.060;2022-08-05T05:04:55;21.90;97.90
2839;DHT22;1427;48.510;9.060;2022-08-05T05:07:29;21.90;97.40
2839;DHT22;1427;48.510;9.060;2022-08-05T05:09:58;21.60;97.80
2839;DHT22;1427;48.510;9.060;2022-08-05T05:12:30;21.40;98.10
2839;DHT22;1427;48.510;9.060;2022-08-05T05:14:58;21.30;97.90
2839;DHT22;1427;48.510;9.060;2022-08-05T05:17:36;21.30;97.50
2839;DHT22;1427;48.510;9.060;2022-08-05T05:20:23;21.40;97.30
2839;DHT22;1427;48.510;9.060;2022-08-05T05:22:56;21.60;96.20
2839;DHT22;1427;48.510;9.060;2022-08-05T05:25:24;21.90;95.80
2839;DHT22;1427;48.510;9.060;2022-08-05T05:28:06;22.00;95.40
2839;DHT22;1427;48.510;9.060;2022-08-05T05:30:35;22.30;94.90
2839;DHT22;1427;48.510;9.060;2022-08-05T05:33:04;22.60;94.40
2839;DHT22;1427;48.510;9.060;2022-08-05T05:35:43;22.90;94.00
2839;DHT22;1427;48.510;9.060;2022-08-05T05:38:15;23.20;93.50
2839;DHT22;1427;48.510;9.060;2022-08-05T05:40:53;23.60;93.00
2839;DHT22;1427;48.510;9.060;2022-08-05T05:43:23;23.80;92.60
2839;DHT22;1427;48.510;9.060;2022-08-05T05:46:11;23.90;92.40
2839;DHT22;1427;48.510;9.060;2022-08-05T05:48:45;24.30;92.10
2839;DHT22;1427;48.510;9.060;2022-08-05T05:51:19;24.50;92.00
2839;DHT22;1427;48.510;9.060;2022-08-05T05:53:50;24.80;91.30
2839;DHT22;1427;48.510;9.060;2022-08-05T05:56:26;25.10;90.70
2839;DHT22;1427;48.510;9.060;2022-08-05T05:58:59;25.20;90.60
2839;DHT22;1427;48.510;9.060;2022-08-05T06:01:29;25.20;90.70
2839;DHT22;1427;48.510;9.060;2022-08-05T06:04:04;25.40;90.40
2839;DHT22;1427;48.510;9.060;2022-08-05T06:06:33;25.40;90.50
2839;DHT22;1427;48.510;9.060;2022-08-05T06:09:03;25.70;90.30
2839;DHT22;1427;48.510;9.060;2022-08-05T06:11:33;25.90;90.10
2839;DHT22;1427;48.510;9.060;2022-08-05T06:14:05;26.10;89.20
2839;DHT22;1427;48.510;9.060;2022-08-05T06:16:33;26.10;88.80
2839;DHT22;1427;48.510;9.060;2022-08-05T06:19:03;26.10;89.00
2839;DHT22;1427;48.510;9.060;2022-08-05T06:21:33;26.10;89.10
2839;DHT22;1427;48.510;9.060;2022-08-05T06:24:06;26.40;89.40
2839;DHT22;1427;48.510;9.060;2022-08-05T06:26:38;26.80;88.90
2839;DHT22;1427;48.510;9.060;2022-08-05T06:29:18;27.10;87.30
2839;DHT22;1427;48.510;9.060;2022-08-05T06:32:06;27.10;87.30
2839;DHT22;1427;48.510;9.060;2022-08-05T06:34:54;27.20;88.40
2839;DHT22;1427;48.510;9.060;2022-08-05T06:37:25;27.40;88.10
2839;DHT22;1427;48.510;9.060;2022-08-05T06:40:15;27.70;88.80
2839;DHT22;1427;48.510;9.060;2022-08-05T06:42:46;27.70;88.20
2839;DHT22;1427;48.510;9.060;2022-08-05T06:45:18;27.40;89.20
2839;DHT22;1427;48.510;9.060;2022-08-05T06:48:06;27.40;90.00
2839;DHT22;1427;48.510;9.060;2022-08-05T06:50:54;27.30;90.30
2839;DHT22;1427;48.510;9.060;2022-08-05T06:53:23;27.40;90.20
2839;DHT22;1427;48.510;9.060;2022-08-05T06:55:56;27.40;90.70
2839;DHT22;1427;48.510;9.060;2022-08-05T06:58:24;27.30;90.90
2839;DHT22;1427;48.510;9.060;2022-08-05T07:01:01;27.30;90.80
2839;DHT22;1427;48.510;9.060;2022-08-05T07:03:30;27.60;90.80
2839;DHT22;1427;48.510;9.060;2022-08-05T07:05:59;27.80;90.90
2839;DHT22;1427;48.510;9.060;2022-08-05T07:08:40;28.20;90.50
2839;DHT22;1427;48.510;9.060;2022-08-05T07:11:19;28.40;90.30
2839;DHT22;1427;48.510;9.060;2022-08-05T07:13:51;28.60;89.50
2839;DHT22;1427;48.510;9.060;2022-08-05T07:16:46;28.90;89.60
2839;DHT22;1427;48.510;9.060;2022-08-05T07:19:38;28.80;86.10
2839;DHT22;1427;48.510;9.060;2022-08-05T07:22:26;28.90;87.00
2839;DHT22;1427;48.510;9.060;2022-08-05T07:24:59;28.80;85.80
2839;DHT22;1427;48.510;9.060;2022-08-05T07:27:50;28.50;85.70
2839;DHT22;1427;48.510;9.060;2022-08-05T07:30:25;28.30;85.70
2839;DHT22;1427;48.510;9.060;2022-08-05T07:32:59;28.30;86.50
2839;DHT22;1427;48.510;9.060;2022-08-05T07:35:36;28.20;86.60
2839;DHT22;1427;48.510;9.060;2022-08-05T07:38:25;28.20;87.30
2839;DHT22;1427;48.510;9.060;2022-08-05T07:41:02;28.20;87.10
2839;DHT22;1427;48.510;9.060;2022-08-05T07:43:52;28.50;87.30
2839;DHT22;1427;48.510;9.060;2022-08-05T07:46:23;29.00;86.10
2839;DHT22;1427;48.510;9.060;2022-08-05T07:48:53;29.30;85.90
2839;DHT22;1427;48.510;9.060;2022-08-05T07:51:32;29.30;83.20
2839;DHT22;1427;48.510;9.060;2022-08-05T07:54:07;29.10;81.20
2839;DHT22;1427;48.510;9.060;2022-08-05T07:56:37;29.30;81.80
2839;DHT22;1427;48.510;9.060;2022-08-05T07:59:26;29.30;80.00
2839;DHT22;1427;48.510;9.060;2022-08-05T08:02:05;29.50;79.50
2839;DHT22;1427;48.510;9.060;2022-08-05T08:04:46;29.20;78.40
2839;DHT22;1427;48.510;9.060;2022-08-05T08:07:15;29.30;78.60
2839;DHT22;1427;48.510;9.060;2022-08-05T08:09:49;29.50;80.30
2839;DHT22;1427;48.510;9.060;2022-08-05T08:12:21;29.70;78.80
2839;DHT22;1427;48.510;9.060;2022-08-05T08:15:08;29.70;77.90
2839;DHT22;1427;48.510;9.060;2022-08-05T08:17:42;30.00;76.70
2839;DHT22;1427;48.510;9.060;2022-08-05T08:20:19;30.00;76.40
2839;DHT22;1427;48.510;9.060;2022-08-05T08:23:07;30.20;75.90
2839;DHT22;1427;48.510;9.060;2022-08-05T08:25:55;29.90;74.70
2839;DHT22;1427;48.510;9.060;2022-08-05T08:28:28;29.70;76.50
2839;DHT22;1427;48.510;9.060;2022-08-05T08:31:05;29.90;76.80
2839;DHT22;1427;48.510;9.060;2022-08-05T08:33:33;30.10;75.80
2839;DHT22;1427;48.510;9.060;2022-08-05T08:36:05;30.20;75.50
2839;DHT22;1427;48.510;9.060;2022-08-05T08:38:53;30.30;75.10
2839;DHT22;1427;48.510;9.060;2022-08-05T08:41:24;30.40;75.80
2839;DHT22;1427;48.510;9.060;2022-08-05T08:44:13;30.60;76.20
2839;DHT22;1427;48.510;9.060;2022-08-05T08:47:03;31.10;75.30
2839;DHT22;1427;48.510;9.060;2022-08-05T08:49:54;31.10;74.50
2839;DHT22;1427;48.510;9.060;2022-08-05T08:52:46;31.50;74.70
2839;DHT22;1427;48.510;9.060;2022-08-05T08:55:19;31.70;73.40
2839;DHT22;1427;48.510;9.060;2022-08-05T08:58:08;31.70;73.00
2839;DHT22;1427;48.510;9.060;2022-08-05T09:00:39;31.60;73.30
2839;DHT22;1427;48.510;9.060;2022-08-05T09:03:09;31.30;72.20
2839;DHT22;1427;48.510;9.060;2022-08-05T09:05:42;31.10;72.90
2839;DHT22;1427;48.510;9.060;2022-08-05T09:08:30;30.90;74.10
2839;DHT22;1427;48.510;9.060;2022-08-05T09:10:58;30.90;73.80
2839;DHT22;1427;48.510;9.060;2022-08-05T09:13:26;31.00;73.80
2839;DHT22;1427;48.510;9.060;2022-08-05T09:16:07;31.00;74.00
2839;DHT22;1427;48.510;9.060;2022-08-05T09:18:44;31.00;73.20
2839;DHT22;1427;48.510;9.060;2022-08-05T09:21:12;31.10;74.70
2839;DHT22;1427;48.510;9.060;2022-08-05T09:24:01;31.10;70.80
2839;DHT22;1427;48.510;9.060;2022-08-05T09:26:32;31.00;74.80
2839;DHT22;1427;48.510;9.060;2022-08-05T09:29:04;31.40;74.90
2839;DHT22;1427;48.510;9.060;2022-08-05T09:31:34;31.90;72.90
2839;DHT22;1427;48.510;9.060;2022-08-05T09:34:24;32.20;74.60
2839;DHT22;1427;48.510;9.060;2022-08-05T09:36:53;32.30;70.40
2839;DHT22;1427;48.510;9.060;2022-08-05T09:39:26;32.00;69.60
2839;DHT22;1427;48.510;9.060;2022-08-05T09:42:12;32.10;72.50
2839;DHT22;1427;48.510;9.060;2022-08-05T09:44:54;32.30;73.20
2839;DHT22;1427;48.510;9.060;2022-08-05T09:47:42;32.60;71.20
2839;DHT22;1427;48.510;9.060;2022-08-05T09:50:34;32.50;68.50
2839;DHT22;1427;48.510;9.060;2022-08-05T09:53:09;32.50;69.60
2839;DHT22;1427;48.510;9.060;2022-08-05T09:55:54;32.60;70.60
2839;DHT22;1427;48.510;9.060;2022-08-05T09:58:30;32.80;70.60
2839;DHT22;1427;48.510;9.060;2022-08-05T10:01:00;33.10;70.50
2839;DHT22;1427;48.510;9.060;2022-08-05T10:03:54;33.30;70.90
2839;DHT22;1427;48.510;9.060;2022-08-05T10:06:26;33.30;70.10
2839;DHT22;1427;48.510;9.060;2022-08-05T10:09:09;33.20;67.90
2839;DHT22;1427;48.510;9.060;2022-08-05T10:12:06;33.10;70.50
2839;DHT22;1427;48.510;9.060;2022-08-05T10:15:12;33.50;69.60
2839;DHT22;1427;48.510;9.060;2022-08-05T10:18:08;33.80;69.60
2839;DHT22;1427;48.510;9.060;2022-08-05T10:20:39;33.70;66.70
2839;DHT22;1427;48.510;9.060;2022-08-05T10:23:13;33.30;67.00
2839;DHT22;1427;48.510;9.060;2022-08-05T10:26:04;32.60;67.40
2839;DHT22;1427;48.510;9.060;2022-08-05T10:28:41;32.70;67.20
2839;DHT22;1427;48.510;9.060;2022-08-05T10:31:12;32.90;70.00
2839;DHT22;1427;48.510;9.060;2022-08-05T10:34:00;33.20;67.90
2839;DHT22;1427;48.510;9.060;2022-08-05T10:36:29;33.30;68.40
2839;DHT22;1427;48.510;9.060;2022-08-05T10:39:03;33.30;68.10
2839;DHT22;1427;48.510;9.060;2022-08-05T10:41:46;33.50;68.40
2839;DHT22;1427;48.510;9.060;2022-08-05T10:44:17;33.80;68.70
2839;DHT22;1427;48.510;9.060;2022-08-05T10:46:49;34.10;66.70
2839;DHT22;1427;48.510;9.060;2022-08-05T10:49:20;34.20;65.50
2839;DHT22;1427;48.510;9.060;2022-08-05T10:51:58;34.20;66.50
2839;DHT22;1427;48.510;9.060;2022-08-05T10:54:47;34.30;66.70
2839;DHT22;1427;48.510;9.060;2022-08-05T10:57:26;34.40;66.30
2839;DHT22;1427;48.510;9.060;2022-08-05T11:00:13;34.40;65.60
2839;DHT22;1427;48.510;9.060;2022-08-05T11:03:11;34.00;63.10
2839;DHT22;1427;48.510;9.060;2022-08-05T11:06:11;33.80;62.80
2839;DHT22;1427;48.510;9.060;2022-08-05T11:12:43;33.70;65.40
2839;DHT22;1427;48.510;9.060;2022-08-05T11:15:23;34.00;65.80
2839;DHT22;1427;48.510;9.060;2022-08-05T11:18:26;33.60;62.40
2839;DHT22;1427;48.510;9.060;2022-08-05T11:20:56;32.60;63.70
2839;DHT22;1427;48.510;9.060;2022-08-05T11:23:33;32.80;64.80
2839;DHT22;1427;48.510;9.060;2022-08-05T11:26:23;32.90;66.40
2839;DHT22;1427;48.510;9.060;2022-08-05T11:29:02;33.40;66.20
2839;DHT22;1427;48.510;9.060;2022-08-05T11:31:41;33.70;65.60
2839;DHT22;1427;48.510;9.060;2022-08-05T11:34:37;34.00;65.10
2839;DHT22;1427;48.510;9.060;2022-08-05T11:37:41;34.30;64.50
2839;DHT22;1427;48.510;9.060;2022-08-05T11:40:58;34.20;61.20
2839;DHT22;1427;48.510;9.060;2022-08-05T11:43:53;34.40;64.50
2839;DHT22;1427;48.510;9.060;2022-08-05T11:46:35;34.60;61.80
2839;DHT22;1427;48.510;9.060;2022-08-05T11:49:24;34.50;64.40
2839;DHT22;1427;48.510;9.060;2022-08-05T11:51:53;34.50;63.80
2839;DHT22;1427;48.510;9.060;2022-08-05T11:54:26;34.50;63.80
2839;DHT22;1427;48.510;9.060;2022-08-05T11:57:01;34.50;63.20
2839;DHT22;1427;48.510;9.060;2022-08-05T11:59:49;34.50;63.30
2839;DHT22;1427;48.510;9.060;2022-08-05T12:02:24;34.50;60.90
2839;DHT22;1427;48.510;9.060;2022-08-05T12:04:59;34.50;62.70
2839;DHT22;1427;48.510;9.060;2022-08-05T12:07:35;34.40;61.20
2839;DHT22;1427;48.510;9.060;2022-08-05T12:10:26;34.40;61.40
2839;DHT22;1427;48.510;9.060;2022-08-05T12:13:12;34.50;64.60
2839;DHT22;1427;48.510;9.060;2022-08-05T12:15:44;34.80;65.20
2839;DHT22;1427;48.510;9.060;2022-08-05T12:18:18;35.00;63.40
2839;DHT22;1427;48.510;9.060;2022-08-05T12:20:50;35.10;64.00
2839;DHT22;1427;48.510;9.060;2022-08-05T12:23:18;35.30;63.60
2839;DHT22;1427;48.510;9.060;2022-08-05T12:25:51;35.20;63.70
2839;DHT22;1427;48.510;9.060;2022-08-05T12:28:32;35.30;64.30
2839;DHT22;1427;48.510;9.060;2022-08-05T12:31:03;35.20;62.60
2839;DHT22;1427;48.510;9.060;2022-08-05T12:33:33;35.10;63.10
2839;DHT22;1427;48.510;9.060;2022-08-05T12:36:05;34.70;61.10
2839;DHT22;1427;48.510;9.060;2022-08-05T12:38:36;34.30;64.10
2839;DHT22;1427;48.510;9.060;2022-08-05T12:41:10;34.50;65.00
2839;DHT22;1427;48.510;9.060;2022-08-05T12:43:54;34.70;64.60
2839;DHT22;1427;48.510;9.060;2022-08-05T12:46:24;34.40;63.20
2839;DHT22;1427;48.510;9.060;2022-08-05T12:48:58;34.40;64.10
2839;DHT22;1427;48.510;9.060;2022-08-05T12:51:42;34.50;64.00
2839;DHT22;1427;48.510;9.060;2022-08-05T12:54:31;34.40;62.20
2839;DHT22;1427;48.510;9.060;2022-08-05T12:57:01;34.30;64.60
2839;DHT22;1427;48.510;9.060;2022-08-05T12:59:43;34.60;64.90
2839;DHT22;1427;48.510;9.060;2022-08-05T13:02:34;34.90;64.20
2839;DHT22;1427;48.510;9.060;2022-08-05T13:05:07;35.20;63.90
2839;DHT22;1427;48.510;9.060;2022-08-05T13:07:39;35.50;64.80
2839;DHT22;1427;48.510;9.060;2022-08-05T13:10:27;35.60;63.30
2839;DHT22;1427;48.510;9.060;2022-08-05T13:12:58;35.60;60.30
2839;DHT22;1427;48.510;9.060;2022-08-05T13:15:29;34.90;62.00
2839;DHT22;1427;48.510;9.060;2022-08-05T13:18:14;35.00;63.20
2839;DHT22;1427;48.510;9.060;2022-08-05T13:20:47;35.00;62.00
2839;DHT22;1427;48.510;9.060;2022-08-05T13:23:16;35.10;62.80
2839;DHT22;1427;48.510;9.060;2022-08-05T13:25:48;35.30;63.80
2839;DHT22;1427;48.510;9.060;2022-08-05T13:28:27;35.40;60.70
2839;DHT22;1427;48.510;9.060;2022-08-05T13:30:58;35.30;63.20
2839;DHT22;1427;48.510;9.060;2022-08-05T13:33:40;35.30;63.00
2839;DHT22;1427;48.510;9.060;2022-08-05T13:36:30;35.40;62.50
2839;DHT22;1427;48.510;9.060;2022-08-05T13:38:59;35.40;62.60
2839;DHT22;1427;48.510;9.060;2022-08-05T13:41:48;34.60;61.70
2839;DHT22;1427;48.510;9.060;2022-08-05T13:44:16;34.20;62.70
2839;DHT22;1427;48.510;9.060;2022-08-05T13:46:44;34.00;63.00
2839;DHT22;1427;48.510;9.060;2022-08-05T13:49:33;33.70;63.40
2839;DHT22;1427;48.510;9.060;2022-08-05T13:52:10;33.50;64.90
2839;DHT22;1427;48.510;9.060;2022-08-05T13:54:40;33.40;65.30
2839;DHT22;1427;48.510;9.060;2022-08-05T13:57:19;33.20;64.00
2839;DHT22;1427;48.510;9.060;2022-08-05T13:59:50;32.90;64.30
2839;DHT22;1427;48.510;9.060;2022-08-05T14:02:25;32.60;65.30
2839;DHT22;1427;48.510;9.060;2022-08-05T14:04:56;32.60;65.80
2839;DHT22;1427;48.510;9.060;2022-08-05T14:07:56;32.60;65.20
2839;DHT22;1427;48.510;9.060;2022-08-05T14:10:37;32.50;65.80
2839;DHT22;1427;48.510;9.060;2022-08-05T14:13:05;32.40;66.20
2839;DHT22;1427;48.510;9.060;2022-08-05T14:15:34;32.30;66.40
2839;DHT22;1427;48.510;9.060;2022-08-05T14:18:22;32.40;66.70
2839;DHT22;1427;48.510;9.060;2022-08-05T14:20:50;32.30;69.40
2839;DHT22;1427;48.510;9.060;2022-08-05T14:23:22;32.00;70.90
2839;DHT22;1427;48.510;9.060;2022-08-05T14:25:53;31.40;72.00
2839;DHT22;1427;48.510;9.060;2022-08-05T14:28:25;31.00;77.70
2839;DHT22;1427;48.510;9.060;2022-08-05T14:30:54;30.70;78.80
2839;DHT22;1427;48.510;9.060;2022-08-05T14:33:22;30.60;79.40
2839;DHT22;1427;48.510;9.060;2022-08-05T14:35:50;30.30;76.50
2839;DHT22;1427;48.510;9.060;2022-08-05T14:38:21;30.10;81.10
2839;DHT22;1427;48.510;9.060;2022-08-05T14:40:59;29.90;83.10
2839;DHT22;1427;48.510;9.060;2022-08-05T14:43:33;29.50;87.90
2839;DHT22;1427;48.510;9.060;2022-08-05T14:46:21;29.30;90.00
2839;DHT22;1427;48.510;9.060;2022-08-05T14:48:56;29.30;90.40
2839;DHT22;1427;48.510;9.060;2022-08-05T14:51:33;29.60;90.90
2839;DHT22;1427;48.510;9.060;2022-08-05T14:54:04;29.90;90.50
2839;DHT22;1427;48.510;9.060;2022-08-05T14:56:53;30.20;90.40
2839;DHT22;1427;48.510;9.060;2022-08-05T14:59:21;30.40;87.40
2839;DHT22;1427;48.510;9.060;2022-08-05T15:01:49;30.40;84.00
2839;DHT22;1427;48.510;9.060;2022-08-05T15:04:20;30.30;84.50
2839;DHT22;1427;48.510;9.060;2022-08-05T15:06:48;30.20;84.30
2839;DHT22;1427;48.510;9.060;2022-08-05T15:09:19;30.20;83.60
2839;DHT22;1427;48.510;9.060;2022-08-05T15:12:08;30.20;82.80
2839;DHT22;1427;48.510;9.060;2022-08-05T15:14:43;30.40;83.00
2839;DHT22;1427;48.510;9.060;2022-08-05T15:17:16;30.60;82.40
2839;DHT22;1427;48.510;9.060;2022-08-05T15:20:05;30.60;81.00
2839;DHT22;1427;48.510;9.060;2022-08-05T15:22:45;30.50;80.00
2839;DHT22;1427;48.510;9.060;2022-08-05T15:25:22;30.50;80.50
2839;DHT22;1427;48.510;9.060;2022-08-05T15:28:10;30.50;80.60
2839;DHT22;1427;48.510;9.060;2022-08-05T15:30:40;30.40;80.30
2839;DHT22;1427;48.510;9.060;2022-08-05T15:33:11;30.30;81.10
2839;DHT22;1427;48.510;9.060;2022-08-05T15:35:59;30.40;80.00
2839;DHT22;1427;48.510;9.060;2022-08-05T15:38:29;30.40;80.10
2839;DHT22;1427;48.510;9.060;2022-08-05T15:41:04;30.50;79.80
2839;DHT22;1427;48.510;9.060;2022-08-05T15:43:50;30.50;80.00
2839;DHT22;1427;48.510;9.060;2022-08-05T15:46:21;30.60;79.20
2839;DHT22;1427;48.510;9.060;2022-08-05T15:48:51;30.60;79.10
2839;DHT22;1427;48.510;9.060;2022-08-05T15:51:36;30.80;78.70
2839;DHT22;1427;48.510;9.060;2022-08-05T15:54:24;31.00;78.70
2839;DHT22;1427;48.510;9.060;2022-08-05T15:57:02;31.00;78.10
2839;DHT22;1427;48.510;9.060;2022-08-05T15:59:33;31.00;78.30
2839;DHT22;1427;48.510;9.060;2022-08-05T16:02:04;31.10;77.40
2839;DHT22;1427;48.510;9.060;2022-08-05T16:04:41;31.10;76.90
2839;DHT22;1427;48.510;9.060;2022-08-05T16:07:09;31.20;77.40
2839;DHT22;1427;48.510;9.060;2022-08-05T16:09:39;31.20;77.40
2839;DHT22;1427;48.510;9.060;2022-08-05T16:12:10;31.20;78.00
2839;DHT22;1427;48.510;9.060;2022-08-05T16:14:40;31.00;78.30
2839;DHT22;1427;48.510;9.060;2022-08-05T16:17:09;30.80;79.10
2839;DHT22;1427;48.510;9.060;2022-08-05T16:19:38;30.70;79.50
2839;DHT22;1427;48.510;9.060;2022-08-05T16:22:26;30.50;80.00
2839;DHT22;1427;48.510;9.060;2022-08-05T16:25:00;30.60;80.10
2839;DHT22;1427;48.510;9.060;2022-08-05T16:27:37;30.70;80.40
2839;DHT22;1427;48.510;9.060;2022-08-05T16:30:25;30.70;80.50
2839;DHT22;1427;48.510;9.060;2022-08-05T16:32:55;30.80;80.30
2839;DHT22;1427;48.510;9.060;2022-08-05T16:35:24;30.90;80.70
2839;DHT22;1427;48.510;9.060;2022-08-05T16:37:58;30.90;80.70
2839;DHT22;1427;48.510;9.060;2022-08-05T16:40:42;30.60;81.10
2839;DHT22;1427;48.510;9.060;2022-08-05T16:43:23;30.30;81.10
2839;DHT22;1427;48.510;9.060;2022-08-05T16:45:53;29.90;81.70
2839;DHT22;1427;48.510;9.060;2022-08-05T16:48:38;29.70;82.60
2839;DHT22;1427;48.510;9.060;2022-08-05T16:51:07;29.50;83.10
2839;DHT22;1427;48.510;9.060;2022-08-05T16:53:37;29.30;83.50
2839;DHT22;1427;48.510;9.060;2022-08-05T16:56:27;29.20;83.60
2839;DHT22;1427;48.510;9.060;2022-08-05T16:58:57;29.30;84.10
2839;DHT22;1427;48.510;9.060;2022-08-05T17:01:33;29.10;83.70
2839;DHT22;1427;48.510;9.060;2022-08-05T17:04:22;29.00;84.20
2839;DHT22;1427;48.510;9.060;2022-08-05T17:06:53;29.00;84.50
2839;DHT22;1427;48.510;9.060;2022-08-05T17:09:26;29.00;84.50
2839;DHT22;1427;48.510;9.060;2022-08-05T17:11:55;29.00;84.10
2839;DHT22;1427;48.510;9.060;2022-08-05T17:14:28;29.00;84.10